Time;durP1;ratioP1;P1;durP2;ratioP2;P2;SDS_P1;SDS_P2;PMS_P1;PMS_P2;Temp;Humidity;BMP_temperature;BMP_pressure;BME280_temperature;BME280_humidity;BME280_pressure;Samples;Min_cycle;Max_cycle;Signal;HPM_P1;HPM_P2
2020/12/25 00:01:31;;;;;;;1.92;1.00;;;3.50;99.90;;;;;;5045614;28;20484;-67
2020/12/25 00:03:59;;;;;;;1.20;0.80;;;3.50;99.90;;;;;;5050643;28;20059;-67
2020/12/25 00:06:34;;;;;;;1.88;1.00;;;3.40;99.90;;;;;;5048531;28;20385;-67
2020/12/25 00:09:04;;;;;;;2.28;1.05;;;3.40;99.90;;;;;;5045808;28;20061;-67
2020/12/25 00:11:31;;;;;;;;;;;3.40;99.90;;;;;;5047959;28;20507;-67
2020/12/25 00:13:57;;;;;;;1.30;0.80;;;3.30;99.90;;;;;;5050066;28;19927;-67
2020/12/25 00:16:24;;;;;;;1.92;1.08;;;3.30;99.90;;;;;;5046718;28;20436;-67
2020/12/25 00:18:51;;;;;;;1.92;0.90;;;3.30;99.90;;;;;;5050858;28;20538;-67
2020/12/25 00:21:18;;;;;;;2.28;1.13;;;3.30;99.90;;;;;;5040597;28;20083;-67
2020/12/25 00:23:44;;;;;;;2.33;0.88;;;3.20;99.90;;;;;;5050585;28;20468;-67
2020/12/25 00:26:11;;;;;;;1.75;0.90;;;3.20;99.90;;;;;;5047225;28;20060;-67
2020/12/25 00:28:39;;;;;;;1.17;0.68;;;3.20;99.90;;;;;;5050045;28;20045;-67
2020/12/25 00:31:06;;;;;;;1.40;0.82;;;3.20;99.90;;;;;;5047115;28;20073;-67
2020/12/25 00:33:33;;;;;;;1.52;1.10;;;3.20;99.90;;;;;;5050018;28;20051;-67
2020/12/25 00:35:59;;;;;;;1.40;1.00;;;3.20;99.90;;;;;;5048142;28;20159;-67
2020/12/25 00:38:25;;;;;;;1.50;1.00;;;3.20;99.90;;;;;;5049765;28;20049;-67
2020/12/25 00:40:51;;;;;;;1.17;0.95;;;3.20;99.90;;;;;;5044498;28;20077;-67
2020/12/25 00:43:17;;;;;;;1.88;1.05;;;3.30;99.90;;;;;;5053978;28;20049;-67
2020/12/25 00:45:44;;;;;;;3.72;1.10;;;3.30;99.90;;;;;;5051435;28;20045;-67
2020/12/25 00:48:10;;;;;;;1.88;1.10;;;3.30;99.90;;;;;;5053712;28;20056;-67
2020/12/25 00:50:38;;;;;;;1.77;1.20;;;3.30;99.90;;;;;;5050683;28;20044;-67
2020/12/25 00:53:04;;;;;;;1.52;1.13;;;3.40;99.90;;;;;;5053908;28;20428;-67
2020/12/25 00:55:30;;;;;;;1.30;1.02;;;3.40;99.90;;;;;;5049090;28;20506;-67
2020/12/25 00:57:56;;;;;;;2.40;1.00;;;3.40;99.90;;;;;;5053720;28;20052;-67
2020/12/25 01:00:22;;;;;;;2.38;1.45;;;3.40;99.90;;;;;;5049949;28;20136;-67
2020/12/25 01:02:48;;;;;;;2.03;1.10;;;3.40;99.90;;;;;;5053813;28;20479;-67
2020/12/25 01:05:15;;;;;;;1.75;1.20;;;3.40;99.90;;;;;;5051199;28;20057;-67
2020/12/25 01:07:41;;;;;;;1.50;0.95;;;3.40;99.90;;;;;;5053877;28;20053;-67
2020/12/25 01:10:07;;;;;;;2.28;1.35;;;3.40;99.90;;;;;;5050367;28;20503;-67
2020/12/25 01:12:34;;;;;;;1.25;1.00;;;3.40;99.90;;;;;;5053893;28;20128;-67
2020/12/25 01:15:00;;;;;;;2.05;0.90;;;3.40;99.90;;;;;;5051382;28;20126;-67
2020/12/25 01:17:26;;;;;;;1.67;1.00;;;3.50;99.90;;;;;;5047384;28;20384;-67
2020/12/25 01:19:52;;;;;;;1.58;1.08;;;3.50;99.90;;;;;;5049817;28;20132;-67
2020/12/25 01:22:19;;;;;;;3.03;1.50;;;3.50;99.90;;;;;;5053503;28;20476;-67
2020/12/25 01:24:45;;;;;;;1.95;1.00;;;3.50;99.90;;;;;;5048930;28;20480;-67
2020/12/25 01:27:11;;;;;;;1.92;0.90;;;3.50;99.90;;;;;;5051990;28;20045;-67
2020/12/25 01:29:37;;;;;;;3.85;0.95;;;3.60;99.90;;;;;;5049690;28;20143;-67
2020/12/25 01:32:04;;;;;;;1.27;0.90;;;3.60;99.90;;;;;;5053222;28;20045;-67
2020/12/25 01:34:32;;;;;;;1.58;1.00;;;3.60;99.90;;;;;;5051058;28;20080;-67
2020/12/25 01:36:58;;;;;;;1.33;0.80;;;3.70;99.90;;;;;;5050504;28;20047;-67
2020/12/25 01:39:24;;;;;;;2.50;1.30;;;3.70;99.90;;;;;;5048275;28;20119;-67
2020/12/25 01:41:50;;;;;;;1.58;0.88;;;3.70;99.90;;;;;;5051131;28;20136;-67
2020/12/25 01:44:16;;;;;;;1.42;0.80;;;3.70;99.90;;;;;;5050732;28;20048;-67
2020/12/25 01:46:43;;;;;;;1.27;0.80;;;3.80;99.90;;;;;;5050520;28;20135;-67
2020/12/25 01:49:10;;;;;;;2.10;1.20;;;3.80;99.90;;;;;;5050721;28;20044;-67
2020/12/25 01:51:37;;;;;;;2.22;1.00;;;3.80;99.90;;;;;;5066516;28;20763;-67
2020/12/25 01:54:03;;;;;;;3.30;0.95;;;3.80;99.90;;;;;;5052190;28;20121;-67
2020/12/25 01:56:30;;;;;;;2.95;1.27;;;3.80;99.90;;;;;;5049873;28;20043;-67
2020/12/25 01:58:56;;;;;;;1.33;0.85;;;3.80;99.90;;;;;;5051701;28;20049;-67
2020/12/25 02:01:23;;;;;;;1.58;1.00;;;3.80;99.90;;;;;;5048600;28;20057;-67
2020/12/25 02:03:50;;;;;;;1.85;0.93;;;3.80;99.90;;;;;;5052489;28;20049;-67
2020/12/25 02:06:16;;;;;;;1.92;0.85;;;3.80;99.90;;;;;;5050248;28;20051;-67
2020/12/25 02:08:42;;;;;;;1.52;0.85;;;3.80;99.90;;;;;;5052215;28;20060;-67
2020/12/25 02:11:10;;;;;;;0.95;0.68;;;3.80;99.90;;;;;;5047321;28;20137;-67
2020/12/25 02:13:37;;;;;;;3.25;0.90;;;3.80;99.90;;;;;;5051941;28;20047;-67
2020/12/25 02:16:04;;;;;;;1.63;0.80;;;3.80;99.90;;;;;;5045322;28;20045;-67
2020/12/25 02:18:37;;;;;;;1.38;0.80;;;3.90;99.90;;;;;;5050652;28;20044;-67
2020/12/25 02:21:04;;;;;;;1.10;0.70;;;3.90;99.90;;;;;;5043753;28;20442;-67
2020/12/25 02:23:30;;;;;;;1.65;0.80;;;3.90;99.90;;;;;;5052298;28;20067;-67
2020/12/25 02:25:57;;;;;;;2.05;0.70;;;3.90;99.90;;;;;;5049691;28;20053;-68
2020/12/25 02:28:23;;;;;;;1.08;0.52;;;3.90;99.90;;;;;;5051287;28;20176;-68
2020/12/25 02:30:50;;;;;;;2.10;0.70;;;3.90;99.90;;;;;;5046132;28;20159;-67
2020/12/25 02:33:16;;;;;;;1.45;0.60;;;3.90;99.90;;;;;;5051764;28;20041;-67
2020/12/25 02:35:42;;;;;;;1.17;0.63;;;3.90;99.90;;;;;;5045151;28;20049;-67
2020/12/25 02:38:09;;;;;;;1.00;0.70;;;3.90;99.90;;;;;;5051650;28;20087;-67
2020/12/25 02:40:35;;;;;;;2.05;0.60;;;3.90;99.90;;;;;;5042876;28;20279;-67
2020/12/25 02:43:01;;;;;;;1.70;0.70;;;3.80;99.90;;;;;;5051485;28;20052;-68
2020/12/25 02:45:28;;;;;;;2.88;0.68;;;3.80;99.90;;;;;;5049399;28;20076;-68
2020/12/25 02:47:54;;;;;;;2.55;0.70;;;3.80;99.90;;;;;;5051491;28;20483;-68
2020/12/25 02:50:20;;;;;;;1.70;0.70;;;3.70;99.90;;;;;;5045674;28;20049;-68
2020/12/25 02:52:46;;;;;;;1.17;0.70;;;3.70;99.90;;;;;;5051136;28;20049;-67
2020/12/25 02:55:14;;;;;;;1.35;0.70;;;3.70;99.90;;;;;;5049174;28;20052;-67
2020/12/25 02:57:40;;;;;;;0.90;0.50;;;3.60;99.90;;;;;;5051368;28;20051;-67
2020/12/25 03:00:07;;;;;;;2.25;1.00;;;3.60;99.90;;;;;;5043267;28;20045;-67
2020/12/25 03:02:33;;;;;;;1.35;0.60;;;3.60;99.90;;;;;;5050254;28;20049;-67
2020/12/25 03:04:59;;;;;;;1.25;0.70;;;3.60;99.90;;;;;;5044879;28;20504;-67
2020/12/25 03:07:25;;;;;;;1.08;0.77;;;3.70;99.90;;;;;;5051103;28;20484;-67
2020/12/25 03:09:52;;;;;;;1.00;0.60;;;3.70;99.90;;;;;;5045993;28;20072;-67
2020/12/25 03:12:18;;;;;;;2.50;0.85;;;3.70;99.90;;;;;;5048478;28;20057;-67
2020/12/25 03:14:44;;;;;;;1.10;0.80;;;3.70;99.90;;;;;;5046777;28;20132;-67
2020/12/25 03:17:11;;;;;;;2.50;0.77;;;3.70;99.90;;;;;;5050371;28;20133;-67
2020/12/25 03:19:37;;;;;;;0.88;0.50;;;3.70;99.90;;;;;;5048794;28;20048;-67
2020/12/25 03:22:03;;;;;;;1.05;0.60;;;3.70;99.90;;;;;;5050331;28;20045;-67
2020/12/25 03:24:29;;;;;;;2.85;0.60;;;3.70;99.90;;;;;;5048977;28;20052;-67
2020/12/25 03:26:56;;;;;;;2.25;0.90;;;3.70;99.90;;;;;;5047181;28;20118;-67
2020/12/25 03:29:22;;;;;;;1.52;0.60;;;3.70;99.90;;;;;;5047876;28;20148;-67
2020/12/25 03:31:48;;;;;;;0.70;0.40;;;3.60;99.90;;;;;;5046577;28;20045;-67
2020/12/25 03:34:14;;;;;;;0.73;0.50;;;3.60;99.90;;;;;;5048787;28;20064;-67
2020/12/25 03:36:41;;;;;;;1.15;0.63;;;3.60;99.90;;;;;;5045647;28;20056;-67
2020/12/25 03:39:07;;;;;;;1.33;0.60;;;3.60;99.90;;;;;;5050065;28;20048;-67
2020/12/25 03:41:34;;;;;;;1.90;0.50;;;3.60;99.90;;;;;;5046581;28;20052;-67
2020/12/25 03:44:00;;;;;;;0.80;0.50;;;3.60;99.90;;;;;;5050911;28;20059;-67
2020/12/25 03:46:35;;;;;;;1.52;0.50;;;3.60;99.90;;;;;;5047969;28;20051;-67
2020/12/25 03:49:05;;;;;;;1.98;1.02;;;3.50;99.90;;;;;;5044970;28;20159;-67
2020/12/25 03:51:32;;;;;;;1.45;0.50;;;3.50;99.90;;;;;;5046893;28;20049;-67
2020/12/25 03:53:59;;;;;;;0.90;0.60;;;3.50;99.90;;;;;;5051077;28;20047;-67
2020/12/25 03:56:26;;;;;;;1.58;0.60;;;3.40;99.90;;;;;;5048928;28;20037;-67
2020/12/25 03:58:52;;;;;;;1.40;0.70;;;3.40;99.90;;;;;;5050054;28;20144;-67
2020/12/25 04:01:18;;;;;;;1.00;0.60;;;3.40;99.90;;;;;;5042844;28;20049;-67
2020/12/25 04:03:44;;;;;;;1.30;0.50;;;3.30;99.90;;;;;;5051144;28;20049;-67
2020/12/25 04:06:11;;;;;;;0.95;0.43;;;3.30;99.90;;;;;;5048777;28;20130;-67
2020/12/25 04:08:37;;;;;;;0.95;0.60;;;3.20;99.90;;;;;;5050333;28;20048;-67
2020/12/25 04:11:05;;;;;;;1.20;0.60;;;3.20;99.90;;;;;;5046407;28;20100;-67
2020/12/25 04:13:32;;;;;;;1.00;0.60;;;3.10;99.90;;;;;;5050132;28;20077;-67
2020/12/25 04:16:02;;;;;;;0.90;0.55;;;3.00;99.90;;;;;;5049117;28;20381;-67
2020/12/25 04:18:30;;;;;;;1.98;0.50;;;3.00;99.90;;;;;;5054583;28;20468;-67
2020/12/25 04:20:57;;;;;;;1.80;1.13;;;2.90;99.90;;;;;;5050843;28;20053;-67
2020/12/25 04:23:24;;;;;;;1.35;0.60;;;2.90;99.90;;;;;;5052114;28;20389;-67
2020/12/25 04:25:50;;;;;;;1.42;0.60;;;2.90;99.90;;;;;;5049050;28;20056;-67
2020/12/25 04:28:16;;;;;;;1.05;0.73;;;2.90;99.90;;;;;;5053088;28;20051;-67
2020/12/25 04:30:42;;;;;;;1.30;0.80;;;2.90;99.90;;;;;;5044633;28;20108;-67
2020/12/25 04:33:08;;;;;;;0.73;0.52;;;3.00;99.90;;;;;;5054561;28;20040;-67
2020/12/25 04:35:35;;;;;;;0.95;0.60;;;3.00;99.90;;;;;;5051529;28;20056;-67
2020/12/25 04:38:01;;;;;;;1.10;0.80;;;3.00;99.90;;;;;;5053985;28;20429;-66
2020/12/25 04:40:27;;;;;;;1.27;0.70;;;3.00;99.90;;;;;;5044855;28;20041;-66
2020/12/25 04:42:55;;;;;;;1.65;0.80;;;2.90;99.90;;;;;;5053772;28;20055;-66
2020/12/25 04:45:22;;;;;;;0.90;0.60;;;2.90;99.90;;;;;;5047573;28;20049;-66
2020/12/25 04:47:51;;;;;;;0.80;0.60;;;2.90;99.90;;;;;;5053071;28;20067;-66
2020/12/25 04:50:17;;;;;;;;;;;2.90;99.90;;;;;;5051574;28;20135;-67
2020/12/25 04:52:48;;;;;;;0.77;0.57;;;2.80;99.90;;;;;;5044532;28;19927;-67
2020/12/25 04:55:15;;;;;;;0.75;0.57;;;2.80;99.90;;;;;;5048299;28;20125;-67
2020/12/25 04:57:41;;;;;;;1.25;0.80;;;2.70;99.90;;;;;;5053773;28;20132;-67
2020/12/25 05:00:23;;;;;;;1.45;0.70;;;2.70;99.90;;;;;;5050049;28;20048;-67
2020/12/25 05:02:51;;;;;;;1.13;0.88;;;2.70;99.90;;;;;;5048521;28;20411;-67
2020/12/25 05:05:24;;;;;;;1.23;0.80;;;2.70;99.90;;;;;;5049818;28;20068;-67
2020/12/25 05:07:52;;;;;;;1.42;0.90;;;2.60;99.90;;;;;;5052957;28;20136;-67
2020/12/25 05:10:18;;;;;;;1.73;0.80;;;2.60;99.90;;;;;;5047929;28;20056;-67
2020/12/25 05:12:46;;;;;;;1.38;0.70;;;2.60;99.90;;;;;;5051405;28;20574;-67
2020/12/25 05:15:14;;;;;;;1.20;0.95;;;2.60;99.90;;;;;;5049094;28;20144;-67
2020/12/25 05:17:41;;;;;;;0.90;0.70;;;2.60;99.90;;;;;;5047629;28;20505;-67
2020/12/25 05:20:09;;;;;;;1.20;0.80;;;2.60;99.90;;;;;;5055531;28;20036;-67
2020/12/25 05:22:37;;;;;;;1.42;1.00;;;2.50;99.90;;;;;;5046616;28;20694;-67
2020/12/25 05:25:08;;;;;;;1.10;0.90;;;2.50;99.90;;;;;;5045460;28;20144;-67
2020/12/25 05:27:34;;;;;;;1.95;1.10;;;2.60;99.90;;;;;;5049574;28;20048;-67
2020/12/25 05:30:04;;;;;;;4.10;1.30;;;2.60;99.90;;;;;;5046311;28;20136;-67
2020/12/25 05:32:33;;;;;;;1.70;1.20;;;2.60;99.90;;;;;;5050934;28;20040;-67
2020/12/25 05:35:00;;;;;;;1.65;0.90;;;2.60;99.90;;;;;;5044761;28;20495;-67
2020/12/25 05:37:36;;;;;;;2.55;1.10;;;2.60;99.90;;;;;;5053125;28;20400;-67
2020/12/25 05:40:06;;;;;;;1.35;1.20;;;2.60;99.90;;;;;;5039621;28;20366;-66
2020/12/25 05:42:44;;;;;;;3.08;1.15;;;2.70;99.90;;;;;;5052467;28;20057;-66
2020/12/25 05:45:11;;;;;;;1.50;1.20;;;2.70;99.90;;;;;;5049736;28;20053;-66
2020/12/25 05:47:37;;;;;;;3.60;1.30;;;2.70;99.90;;;;;;5053015;28;20087;-66
2020/12/25 05:50:06;;;;;;;2.47;1.33;;;2.70;99.90;;;;;;5050200;28;20136;-67
2020/12/25 05:52:34;;;;;;;1.73;1.23;;;2.80;99.90;;;;;;5048526;28;20121;-67
2020/12/25 05:55:02;;;;;;;4.10;1.10;;;2.80;99.90;;;;;;5047800;28;20041;-66
2020/12/25 05:57:33;;;;;;;2.38;1.40;;;2.70;99.90;;;;;;5052330;28;20047;-66
2020/12/25 06:00:03;;;;;;;2.45;1.10;;;2.80;99.90;;;;;;5046083;28;20047;-66
2020/12/25 06:02:34;;;;;;;2.78;1.30;;;2.80;99.90;;;;;;5051889;28;20690;-66
2020/12/25 06:05:02;;;;;;;1.95;1.10;;;2.80;99.90;;;;;;5047106;28;20055;-66
2020/12/25 06:07:30;;;;;;;6.90;1.17;;;2.80;99.90;;;;;;5054527;28;20423;-66
2020/12/25 06:10:00;;;;;;;2.33;0.88;;;2.80;99.90;;;;;;5040293;28;20458;-66
2020/12/25 06:12:53;;;;;;;2.30;0.80;;;2.70;99.90;;;;;;5048851;28;20098;-66
2020/12/25 06:15:33;;;;;;;2.30;1.20;;;2.70;99.90;;;;;;5047963;28;20047;-66
2020/12/25 06:18:24;;;;;;;1.60;0.90;;;2.70;99.90;;;;;;5052195;28;20445;-66
2020/12/25 06:20:56;;;;;;;2.05;1.02;;;2.60;99.90;;;;;;5048836;28;20144;-66
2020/12/25 06:23:25;;;;;;;3.03;1.20;;;2.50;99.90;;;;;;5050401;28;20042;-66
2020/12/25 06:25:52;;;;;;;1.42;0.85;;;2.50;99.90;;;;;;5051382;28;20080;-66
2020/12/25 06:28:19;;;;;;;3.78;1.05;;;2.50;99.90;;;;;;5049045;28;20060;-66
2020/12/25 06:30:46;;;;;;;1.40;0.80;;;2.40;99.90;;;;;;5050410;28;20049;-67
2020/12/25 06:33:12;;;;;;;2.95;0.93;;;2.30;99.90;;;;;;5048610;28;20048;-67
2020/12/25 06:35:40;;;;;;;2.25;1.02;;;2.30;99.90;;;;;;5049112;28;20076;-67
2020/12/25 06:38:09;;;;;;;1.90;1.00;;;2.30;99.90;;;;;;5050639;28;20049;-67
2020/12/25 06:40:36;;;;;;;1.00;0.70;;;2.30;99.90;;;;;;5047640;28;20470;-67
2020/12/25 06:43:03;;;;;;;1.38;0.90;;;2.30;99.90;;;;;;5049865;28;20063;-67
2020/12/25 06:45:32;;;;;;;1.55;1.00;;;2.30;99.90;;;;;;5045275;28;20049;-67
2020/12/25 06:48:16;;;;;;;1.58;0.80;;;2.30;99.90;;;;;;5050674;28;20489;-66
2020/12/25 06:50:51;;;;;;;2.20;0.85;;;2.30;99.90;;;;;;5050510;28;20065;-66
2020/12/25 06:53:34;;;;;;;1.77;0.95;;;2.30;99.90;;;;;;5047277;28;20055;-66
2020/12/25 06:56:26;;;;;;;2.25;1.02;;;2.30;99.90;;;;;;5046869;28;20051;-67
2020/12/25 06:58:54;;;;;;;2.00;1.05;;;2.30;99.90;;;;;;5043286;28;20418;-67
2020/12/25 07:01:40;;;;;;;2.25;1.02;;;2.30;99.90;;;;;;5047517;28;20140;-67
2020/12/25 07:04:29;;;;;;;1.80;1.00;;;2.30;99.90;;;;;;5039061;28;20085;-67
2020/12/25 07:06:58;;;;;;;1.73;1.00;;;2.30;99.90;;;;;;5048643;28;20041;-67
2020/12/25 07:09:47;;;;;;;1.95;0.70;;;2.30;99.90;;;;;;5046339;28;20155;-67
2020/12/25 07:12:21;;;;;;;2.60;1.00;;;2.20;99.90;;;;;;5049813;28;20128;-67
2020/12/25 07:14:48;;;;;;;2.00;1.10;;;2.20;99.90;;;;;;5047418;28;20048;-67
2020/12/25 07:17:15;;;;;;;2.40;1.30;;;2.20;99.90;;;;;;5049381;28;20045;-67
2020/12/25 07:19:43;;;;;;;2.97;1.20;;;2.10;99.90;;;;;;5048230;28;20159;-67
2020/12/25 07:22:10;;;;;;;2.17;1.00;;;2.10;99.90;;;;;;5050915;28;20384;-67
2020/12/25 07:24:41;;;;;;;2.40;0.90;;;2.10;99.90;;;;;;5033962;28;20399;-67
2020/12/25 07:27:09;;;;;;;2.75;1.38;;;2.10;99.90;;;;;;5034615;28;20148;-67
2020/12/25 07:29:36;;;;;;;3.72;1.23;;;2.10;99.90;;;;;;5033378;28;20472;-67
2020/12/25 07:32:03;;;;;;;1.50;1.17;;;2.10;99.90;;;;;;5036840;28;20059;-67
2020/12/25 07:34:29;;;;;;;3.05;1.48;;;2.10;99.90;;;;;;5032314;28;20048;-67
2020/12/25 07:36:57;;;;;;;1.52;1.40;;;2.10;99.90;;;;;;5039514;28;20849;-67
2020/12/25 07:39:27;;;;;;;3.47;1.42;;;2.10;99.90;;;;;;5034398;28;20056;-67
2020/12/25 07:41:53;;;;;;;2.83;1.10;;;2.10;99.90;;;;;;5041528;28;20170;-67
2020/12/25 07:44:23;;;;;;;1.83;1.30;;;2.20;99.90;;;;;;5035270;28;20061;-67
2020/12/25 07:46:51;;;;;;;2.30;1.20;;;2.20;99.90;;;;;;5037834;28;20049;-67
2020/12/25 07:49:19;;;;;;;2.13;1.15;;;2.20;99.90;;;;;;5040215;28;20634;-67
2020/12/25 07:51:49;;;;;;;1.30;1.17;;;2.30;99.90;;;;;;5038527;28;20045;-67
2020/12/25 07:54:17;;;;;;;5.93;1.20;;;2.30;99.90;;;;;;5036192;28;20128;-67
2020/12/25 07:56:44;;;;;;;1.48;0.93;;;2.30;99.90;;;;;;5044948;28;20523;-67
2020/12/25 07:59:10;;;;;;;1.25;0.85;;;2.30;99.90;;;;;;5040624;28;20207;-67
2020/12/25 08:01:37;;;;;;;1.20;0.95;;;2.30;99.90;;;;;;5049996;28;20387;-67
2020/12/25 08:04:05;;;;;;;2.72;1.27;;;2.30;99.90;;;;;;5041117;28;20045;-67
2020/12/25 08:06:33;;;;;;;1.27;1.02;;;2.40;99.90;;;;;;5048601;28;20452;-67
2020/12/25 08:09:05;;;;;;;2.05;1.25;;;2.40;99.90;;;;;;5048321;28;20098;-67
2020/12/25 08:11:32;;;;;;;2.28;1.10;;;2.40;99.90;;;;;;5046678;28;20053;-67
2020/12/25 08:14:17;;;;;;;3.35;1.23;;;2.40;99.90;;;;;;5043162;28;20136;-67
2020/12/25 08:16:45;;;;;;;1.40;1.10;;;2.40;99.90;;;;;;5048984;28;20064;-67
2020/12/25 08:19:11;;;;;;;1.90;1.20;;;2.40;99.90;;;;;;5047662;28;20056;-67
2020/12/25 08:21:39;;;;;;;2.60;1.40;;;2.40;99.90;;;;;;5047924;28;20067;-67
2020/12/25 08:24:07;;;;;;;2.13;1.50;;;2.30;99.90;;;;;;5042687;28;20045;-67
2020/12/25 08:26:36;;;;;;;1.85;1.10;;;2.20;99.90;;;;;;5048196;28;20167;-67
2020/12/25 08:29:03;;;;;;;3.45;1.17;;;2.20;99.90;;;;;;5047045;28;20056;-67
2020/12/25 08:31:40;;;;;;;2.10;0.93;;;2.20;99.90;;;;;;5058097;28;20132;-67
2020/12/25 08:34:21;;;;;;;1.80;1.60;;;2.30;99.90;;;;;;5041941;28;20412;-66
2020/12/25 08:36:58;;;;;;;2.60;1.30;;;2.30;99.90;;;;;;5049725;28;20446;-67
2020/12/25 08:39:31;;;;;;;2.97;1.30;;;2.40;99.90;;;;;;5047144;28;20041;-67
2020/12/25 08:41:58;;;;;;;3.35;1.10;;;2.40;99.90;;;;;;5048600;28;20053;-67
2020/12/25 08:44:26;;;;;;;1.60;1.00;;;2.40;99.90;;;;;;5046586;28;20412;-67
2020/12/25 08:47:08;;;;;;;1.88;1.02;;;2.50;99.90;;;;;;5050459;28;20060;-67
2020/12/25 08:49:35;;;;;;;1.45;1.13;;;2.60;99.90;;;;;;5043762;28;20463;-67
2020/12/25 08:52:01;;;;;;;1.90;1.10;;;2.60;99.90;;;;;;5048741;28;20134;-66
2020/12/25 08:54:29;;;;;;;2.03;1.30;;;2.60;99.90;;;;;;5046925;28;20041;-67
2020/12/25 08:56:55;;;;;;;2.88;1.33;;;2.70;99.90;;;;;;5050336;28;20045;-67
2020/12/25 08:59:22;;;;;;;2.33;1.10;;;2.70;99.90;;;;;;5044836;28;20053;-68
2020/12/25 09:01:50;;;;;;;1.45;1.20;;;2.80;99.90;;;;;;5049791;28;20059;-67
2020/12/25 09:04:22;;;;;;;4.53;2.13;;;2.90;99.90;;;;;;5049795;28;20071;-67
2020/12/25 09:06:50;;;;;;;2.78;1.30;;;2.90;99.90;;;;;;5052632;28;20057;-67
2020/12/25 09:09:27;;;;;;;2.28;1.20;;;3.00;99.90;;;;;;5052141;28;20453;-67
2020/12/25 09:11:54;;;;;;;2.15;1.13;;;3.10;99.90;;;;;;5053754;28;20078;-67
2020/12/25 09:14:20;;;;;;;2.60;1.50;;;3.10;99.90;;;;;;5050789;28;20464;-67
2020/12/25 09:16:46;;;;;;;3.45;1.50;;;3.30;99.90;;;;;;5053990;28;20041;-67
2020/12/25 09:19:13;;;;;;;4.75;1.30;;;3.50;99.90;;;;;;5049920;28;20057;-67
2020/12/25 09:21:39;;;;;;;2.10;0.90;;;3.70;99.90;;;;;;5045306;28;20040;-67
2020/12/25 09:24:05;;;;;;;3.72;1.30;;;4.00;99.90;;;;;;5044937;28;20041;-67
2020/12/25 09:26:31;;;;;;;3.85;1.10;;;4.30;99.90;;;;;;5050973;28;20419;-67
2020/12/25 09:28:58;;;;;;;4.72;1.05;;;4.50;99.90;;;;;;5049768;28;20052;-67
2020/12/25 09:31:26;;;;;;;7.03;1.48;;;4.80;99.90;;;;;;5051908;28;20053;-67
2020/12/25 09:33:52;;;;;;;5.28;1.23;;;5.00;99.90;;;;;;5047690;28;20036;-67
2020/12/25 09:36:18;;;;;;;2.47;1.13;;;5.20;99.90;;;;;;5048786;28;20404;-67
2020/12/25 09:38:44;;;;;;;1.92;1.08;;;5.40;99.90;;;;;;5046131;28;20049;-67
2020/12/25 09:41:13;;;;;;;5.82;1.50;;;5.50;99.90;;;;;;5047100;28;20064;-67
2020/12/25 09:43:42;;;;;;;5.18;1.73;;;5.60;99.90;;;;;;5048571;28;20179;-67
2020/12/25 09:46:10;;;;;;;3.90;1.58;;;5.70;99.90;;;;;;5047507;28;20055;-67
2020/12/25 09:48:36;;;;;;;4.53;1.30;;;5.70;99.90;;;;;;5050092;28;20477;-68
2020/12/25 09:51:03;;;;;;;3.40;1.20;;;5.70;99.90;;;;;;5046920;28;20051;-68
2020/12/25 09:53:29;;;;;;;5.70;1.10;;;5.70;99.90;;;;;;5048817;28;20059;-68
2020/12/25 09:55:56;;;;;;;5.05;1.45;;;5.70;99.90;;;;;;5046818;28;20081;-68
2020/12/25 09:58:23;;;;;;;3.50;1.20;;;5.80;99.90;;;;;;5050863;28;20059;-68
2020/12/25 10:00:49;;;;;;;2.58;1.30;;;5.90;99.90;;;;;;5052012;28;20128;-67
2020/12/25 10:03:15;;;;;;;2.30;1.17;;;6.00;99.90;;;;;;5049431;28;20488;-67
2020/12/25 10:05:41;;;;;;;4.03;1.20;;;6.20;99.90;;;;;;5046822;28;20060;-67
2020/12/25 10:08:08;;;;;;;2.47;1.08;;;6.30;99.90;;;;;;5046849;28;20140;-67
2020/12/25 10:10:34;;;;;;;2.45;1.10;;;6.50;99.90;;;;;;5050951;28;20045;-67
2020/12/25 10:13:00;;;;;;;4.32;1.00;;;6.60;99.90;;;;;;5052655;28;20495;-67
2020/12/25 10:15:26;;;;;;;2.70;1.30;;;6.60;99.90;;;;;;5048926;28;20045;-67
2020/12/25 10:17:52;;;;;;;2.65;0.90;;;6.70;99.90;;;;;;5052501;28;20124;-67
2020/12/25 10:20:19;;;;;;;3.40;0.90;;;6.80;99.90;;;;;;5045787;28;20095;-67
2020/12/25 10:22:45;;;;;;;4.80;1.00;;;6.90;99.90;;;;;;5052756;28;20048;-67
2020/12/25 10:25:11;;;;;;;2.67;1.00;;;7.00;99.90;;;;;;5045251;28;20641;-67
2020/12/25 10:27:41;;;;;;;3.75;1.00;;;7.10;99.90;;;;;;5052787;28;20048;-67
2020/12/25 10:30:08;;;;;;;5.22;0.90;;;7.30;99.90;;;;;;5047505;28;20076;-67
2020/12/25 10:32:39;;;;;;;5.22;1.27;;;7.50;99.90;;;;;;5051732;28;20045;-67
2020/12/25 10:35:05;;;;;;;2.10;0.80;;;7.80;99.90;;;;;;5046924;28;20041;-67
2020/12/25 10:37:32;;;;;;;2.22;0.73;;;8.10;99.90;;;;;;5052338;28;20065;-67
2020/12/25 10:39:58;;;;;;;3.15;0.90;;;8.30;99.90;;;;;;5048199;28;20055;-67
2020/12/25 10:42:24;;;;;;;2.47;1.13;;;8.40;99.90;;;;;;5052052;28;20049;-67
2020/12/25 10:44:51;;;;;;;3.55;0.98;;;8.50;99.90;;;;;;5046575;28;20155;-67
2020/12/25 10:47:17;;;;;;;3.55;0.80;;;8.80;99.90;;;;;;5052421;28;20132;-67
2020/12/25 10:49:43;;;;;;;3.92;1.20;;;9.10;99.90;;;;;;5047265;28;20068;-67
2020/12/25 10:52:09;;;;;;;4.93;1.10;;;9.50;99.90;;;;;;5052191;28;20472;-67
2020/12/25 10:54:36;;;;;;;6.53;0.80;;;9.90;99.90;;;;;;5048484;28;20464;-67
2020/12/25 10:57:02;;;;;;;5.15;1.00;;;10.20;99.90;;;;;;5045125;28;20140;-67
2020/12/25 10:59:29;;;;;;;3.92;1.15;;;10.50;99.90;;;;;;5046831;28;20131;-67
2020/12/25 11:01:55;;;;;;;4.57;1.10;;;10.90;99.90;;;;;;5051730;28;20515;-67
2020/12/25 11:04:22;;;;;;;4.90;1.15;;;11.30;99.90;;;;;;5048910;28;20045;-67
2020/12/25 11:06:48;;;;;;;3.78;0.70;;;11.80;99.90;;;;;;5052151;28;20076;-67
2020/12/25 11:09:15;;;;;;;3.30;0.70;;;12.10;99.90;;;;;;5047156;28;20337;-67
2020/12/25 11:11:41;;;;;;;3.47;1.00;;;12.40;99.90;;;;;;5051259;28;20087;-67
2020/12/25 11:14:08;;;;;;;4.80;0.90;;;12.50;99.90;;;;;;5047604;28;20044;-67
2020/12/25 11:16:36;;;;;;;4.70;0.73;;;12.30;99.90;;;;;;5050992;28;20080;-67
2020/12/25 11:19:07;;;;;;;2.35;0.73;;;12.30;99.90;;;;;;5048120;28;20048;-67
2020/12/25 11:21:34;;;;;;;2.47;0.80;;;12.30;99.90;;;;;;5051413;28;20045;-67
2020/12/25 11:24:02;;;;;;;4.85;0.80;;;12.40;99.90;;;;;;5047639;28;20451;-67
2020/12/25 11:26:31;;;;;;;3.63;0.88;;;12.50;99.90;;;;;;5050304;28;20051;-67
2020/12/25 11:29:06;;;;;;;2.92;0.60;;;12.60;99.90;;;;;;5048210;28;20046;-67
2020/12/25 11:31:35;;;;;;;2.08;0.73;;;12.90;99.90;;;;;;5051369;28;20470;-67
2020/12/25 11:34:01;;;;;;;3.70;0.80;;;13.10;99.90;;;;;;5048141;28;20108;-67
2020/12/25 11:36:32;;;;;;;5.03;0.90;;;13.20;99.90;;;;;;5044239;28;20051;-67
2020/12/25 11:38:58;;;;;;;3.15;0.90;;;13.10;99.90;;;;;;5046011;28;20083;-67
2020/12/25 11:41:25;;;;;;;3.42;0.68;;;13.10;99.90;;;;;;5051272;28;20053;-67
2020/12/25 11:43:53;;;;;;;3.67;0.80;;;12.80;99.90;;;;;;5047471;28;20073;-67
2020/12/25 11:46:23;;;;;;;5.03;0.98;;;12.40;99.90;;;;;;5049610;28;20144;-67
2020/12/25 11:48:50;;;;;;;2.65;0.70;;;11.90;99.90;;;;;;5048816;28;20247;-67
2020/12/25 11:51:21;;;;;;;3.83;0.73;;;11.70;99.90;;;;;;5049852;28;20046;-67
2020/12/25 11:53:48;;;;;;;4.95;1.00;;;12.00;99.90;;;;;;5048239;28;20127;-66
2020/12/25 11:56:23;;;;;;;6.35;0.98;;;12.60;99.90;;;;;;5043220;28;20128;-66
2020/12/25 11:58:49;;;;;;;3.13;0.60;;;13.10;99.90;;;;;;5046216;28;20049;-67
2020/12/25 12:01:16;;;;;;;3.13;0.60;;;13.50;99.90;;;;;;5047822;28;20352;-67
2020/12/25 12:03:42;;;;;;;5.75;0.70;;;13.40;99.90;;;;;;5047975;28;20051;-67
2020/12/25 12:06:10;;;;;;;5.95;0.90;;;13.00;99.90;;;;;;5049530;28;20485;-66
2020/12/25 12:08:37;;;;;;;5.05;0.77;;;12.20;99.90;;;;;;5048325;28;20057;-66
2020/12/25 12:11:04;;;;;;;3.45;0.65;;;11.50;99.90;;;;;;5050481;28;20057;-66
2020/12/25 12:13:33;;;;;;;3.30;0.77;;;10.80;99.90;;;;;;5048596;28;20048;-66
2020/12/25 12:15:59;;;;;;;4.13;0.73;;;10.40;99.90;;;;;;5050126;28;20468;-66
2020/12/25 12:18:25;;;;;;;2.83;0.70;;;10.50;99.90;;;;;;5039678;28;20128;-66
2020/12/25 12:20:52;;;;;;;2.72;1.02;;;10.80;99.90;;;;;;5050197;28;20548;-66
2020/12/25 12:23:18;;;;;;;5.97;0.80;;;11.40;99.90;;;;;;5049169;28;20063;-67
2020/12/25 12:25:44;;;;;;;4.72;1.10;;;11.80;99.90;;;;;;5050243;28;20500;-67
2020/12/25 12:28:11;;;;;;;2.83;0.80;;;12.00;99.90;;;;;;5047611;28;20061;-67
2020/12/25 12:30:37;;;;;;;2.75;0.90;;;12.20;99.90;;;;;;5049260;28;20052;-67
2020/12/25 12:33:04;;;;;;;2.53;0.70;;;12.60;99.90;;;;;;5049818;28;20052;-67
2020/12/25 12:35:31;;;;;;;2.70;0.70;;;13.00;99.90;;;;;;5046949;28;20095;-66
2020/12/25 12:37:57;;;;;;;5.95;1.35;;;13.40;99.90;;;;;;5051767;28;20132;-66
2020/12/25 12:40:23;;;;;;;5.22;0.95;;;13.80;99.90;;;;;;5051393;28;20059;-66
2020/12/25 12:42:49;;;;;;;3.33;0.80;;;14.00;99.90;;;;;;5054335;28;20053;-67
2020/12/25 12:45:15;;;;;;;3.85;0.77;;;14.00;99.90;;;;;;5048017;28;20051;-67
2020/12/25 12:47:42;;;;;;;4.35;0.90;;;13.70;99.90;;;;;;5048708;28;20052;-66
2020/12/25 12:50:09;;;;;;;4.32;1.05;;;13.40;99.90;;;;;;5046688;28;20049;-66
2020/12/25 12:52:36;;;;;;;6.68;0.90;;;13.30;99.90;;;;;;5053855;28;20407;-67
2020/12/25 12:55:02;;;;;;;4.15;0.70;;;13.00;99.90;;;;;;5046847;28;20059;-66
2020/12/25 12:57:29;;;;;;;4.65;1.10;;;12.80;99.90;;;;;;5054387;28;20451;-66
2020/12/25 12:59:55;;;;;;;5.57;1.15;;;12.50;99.90;;;;;;5048619;28;20488;-66